Time,TemperatureF,DewpointF,PressureIn,WindDirection,WindDirectionDegrees,WindSpeedMPH,WindSpeedGustMPH,Humidity,HourlyPrecipIn,Conditions,Clouds,dailyrainin,SoftwareType,DateUTC
2013-02-03 00:02:00,9.7,4.8,29.99,WNW,298,0.0,3.0,80,0.00,,,0.00,VWS V14.01,2013-02-03 06:02:00,
2013-02-03 00:12:00,9.5,4.6,29.99,NW,310,1.0,4.0,80,0.00,,,0.00,VWS V14.01,2013-02-03 06:12:00,
2013-02-03 00:22:00,9.3,4.4,29.99,NW,321,0.0,2.0,80,0.00,,,0.00,VWS V14.01,2013-02-03 06:22:00,
2013-02-03 00:32:00,9.3,4.4,29.99,NW,321,0.0,3.0,80,0.00,,,0.00,VWS V14.01,2013-02-03 06:32:00,
2013-02-03 00:37:00,9.2,4.3,29.99,NW,309,0.0,3.0,80,0.00,,,0.00,VWS V14.01,2013-02-03 06:37:00,
2013-02-03 00:42:00,9.2,4.3,29.99,NNW,329,0.0,2.0,80,0.00,,,0.00,VWS V14.01,2013-02-03 06:42:00,
2013-02-03 00:52:00,9.0,4.1,29.99,NW,322,0.0,3.0,80,0.00,,,0.00,VWS V14.01,2013-02-03 06:52:00,
2013-02-03 00:57:00,9.0,4.1,29.99,WNW,300,0.0,2.0,80,0.00,,,0.00,VWS V14.01,2013-02-03 06:57:00,
2013-02-03 01:07:00,9.0,4.1,29.99,NW,312,0.0,9.0,80,0.00,,,0.00,VWS V14.01,2013-02-03 07:07:00,
2013-02-03 01:12:00,9.0,3.8,29.99,NW,320,1.0,10.0,79,0.00,,,0.00,VWS V14.01,2013-02-03 07:12:00,
2013-02-03 01:17:00,8.8,3.6,29.98,NW,304,1.0,10.0,79,0.00,,,0.00,VWS V14.01,2013-02-03 07:17:00,
2013-02-03 01:22:00,8.8,3.6,29.98,NW,324,0.0,9.0,79,0.00,,,0.00,VWS V14.01,2013-02-03 07:22:00,
2013-02-03 01:32:00,8.8,3.6,29.99,NNW,333,5.0,8.0,79,0.00,,,0.00,VWS V14.01,2013-02-03 07:32:00,
2013-02-03 01:42:00,8.6,3.2,29.99,WNW,286,0.0,12.0,78,0.00,,,0.00,VWS V14.01,2013-02-03 07:42:00,
2013-02-03 01:47:00,8.6,3.2,29.99,West,277,5.0,10.0,78,0.00,,,0.00,VWS V14.01,2013-02-03 07:47:00,
2013-02-03 01:52:00,8.6,3.2,29.99,WNW,294,8.0,11.0,78,0.00,,,0.00,VWS V14.01,2013-02-03 07:52:00,
2013-02-03 02:02:00,8.6,3.2,30.01,NNW,327,9.0,13.0,78,0.00,,OVC043,0.00,VWS V14.01,2013-02-03 08:02:00,
2013-02-03 02:07:00,8.6,3.2,30.01,WNW,302,7.0,13.0,78,0.00,,OVC043,0.00,VWS V14.01,2013-02-03 08:07:00,
2013-02-03 02:12:00,8.6,2.9,30.01,WNW,291,7.0,16.0,77,0.00,,OVC043,0.00,VWS V14.01,2013-02-03 08:12:00,
2013-02-03 02:22:00,8.6,2.9,30.01,WNW,300,6.0,15.0,77,0.00,,OVC043,0.00,VWS V14.01,2013-02-03 08:22:00,
2013-02-03 02:32:00,8.8,3.1,30.01,NW,304,9.0,17.0,77,0.00,,OVC043,0.00,VWS V14.01,2013-02-03 08:32:00,
2013-02-03 02:37:00,8.8,2.8,30.01,WNW,296,3.0,15.0,76,0.00,,OVC043,0.00,VWS V14.01,2013-02-03 08:37:00,
2013-02-03 02:42:00,8.8,2.8,30.01,WNW,300,9.0,14.0,76,0.00,,OVC043,0.00,VWS V14.01,2013-02-03 08:42:00,
2013-02-03 02:47:00,9.0,3.0,30.01,NW,305,9.0,14.0,76,0.00,,OVC043,0.00,VWS V14.01,2013-02-03 08:47:00,
2013-02-03 02:52:00,9.2,2.9,30.01,NNW,331,5.0,14.0,75,0.00,,OVC043,0.00,VWS V14.01,2013-02-03 08:52:00,
2013-02-03 02:57:00,9.2,2.9,30.01,WNW,292,11.0,15.0,75,0.00,,OVC043,0.00,VWS V14.01,2013-02-03 08:57:00,
2013-02-03 03:02:00,9.2,2.9,30.01,NNW,339,5.0,14.0,75,0.00,,OVC043,0.00,VWS V14.01,2013-02-03 09:02:00,
2013-02-03 03:07:00,9.3,3.0,30.01,NW,317,6.0,12.0,75,0.00,,OVC043,0.00,VWS V14.01,2013-02-03 09:07:00,
2013-02-03 03:17:00,9.3,2.7,30.01,NW,304,8.0,16.0,74,0.00,,OVC060,0.00,VWS V14.01,2013-02-03 09:17:00,
2013-02-03 03:27:00,9.3,2.7,30.01,NNW,333,10.0,16.0,74,0.00,,OVC060,0.00,VWS V14.01,2013-02-03 09:27:00,
2013-02-03 03:32:00,9.3,2.7,30.00,NW,315,7.0,13.0,74,0.00,,OVC060,0.00,VWS V14.01,2013-02-03 09:32:00,
2013-02-03 03:37:00,9.3,2.7,30.00,NW,313,0.0,10.0,74,0.00,,OVC060,0.00,VWS V14.01,2013-02-03 09:37:00,
2013-02-03 03:42:00,9.3,2.7,30.00,WNW,300,4.0,12.0,74,0.00,,OVC060,0.00,VWS V14.01,2013-02-03 09:42:00,
2013-02-03 03:47:00,9.3,2.7,30.00,NNW,338,0.0,12.0,74,0.00,,OVC060,0.00,VWS V14.01,2013-02-03 09:47:00,
2013-02-03 03:52:00,9.3,2.4,30.00,West,265,7.0,8.0,73,0.00,,OVC060,0.00,VWS V14.01,2013-02-03 09:52:00,
2013-02-03 04:02:00,9.2,2.3,30.02,NW,318,0.0,11.0,73,0.00,,OVC060,0.00,VWS V14.01,2013-02-03 10:02:00,
2013-02-03 04:07:00,8.8,1.9,30.02,WNW,288,0.0,12.0,73,0.00,,OVC060,0.00,VWS V14.01,2013-02-03 10:07:00,
2013-02-03 04:12:00,8.6,1.7,30.02,NW,309,5.0,10.0,73,0.00,,OVC060,0.00,VWS V14.01,2013-02-03 10:12:00,
2013-02-03 04:22:00,8.1,1.0,30.02,NW,304,0.0,5.0,72,0.00,,OVC060,0.00,VWS V14.01,2013-02-03 10:22:00,
2013-02-03 04:27:00,7.7,0.6,30.02,NW,306,0.0,6.0,72,0.00,,OVC060,0.00,VWS V14.01,2013-02-03 10:27:00,
2013-02-03 04:32:00,7.4,0.6,30.03,NW,309,0.0,12.0,73,0.00,,OVC060,0.00,VWS V14.01,2013-02-03 10:32:00,
2013-02-03 04:37:00,7.4,0.6,30.03,West,279,7.0,9.0,73,0.00,,OVC060,0.00,VWS V14.01,2013-02-03 10:37:00,
2013-02-03 04:42:00,7.4,0.6,30.03,WNW,296,6.0,9.0,73,0.00,,OVC060,0.00,VWS V14.01,2013-02-03 10:42:00,
2013-02-03 04:52:00,7.2,0.4,30.04,WNW,300,0.0,7.0,73,0.00,,OVC060,0.00,VWS V14.01,2013-02-03 10:52:00,
2013-02-03 04:57:00,7.0,0.2,30.04,West,281,4.0,13.0,73,0.00,,OVC060,0.00,VWS V14.01,2013-02-03 10:57:00,
2013-02-03 05:02:00,6.9,0.1,30.04,WNW,294,2.0,10.0,73,0.00,,CLR,0.00,VWS V14.01,2013-02-03 11:02:00,
2013-02-03 05:12:00,6.5,-0.3,30.04,West,279,3.0,10.0,73,0.00,,CLR,0.00,VWS V14.01,2013-02-03 11:12:00,
2013-02-03 05:17:00,6.3,-0.5,30.04,WNW,287,3.0,12.0,73,0.00,,CLR,0.00,VWS V14.01,2013-02-03 11:17:00,
2013-02-03 05:22:00,6.1,-0.7,30.04,NW,323,7.0,9.0,73,0.00,,CLR,0.00,VWS V14.01,2013-02-03 11:22:00,
2013-02-03 05:27:00,6.0,-0.5,30.04,WNW,298,10.0,13.0,74,0.00,,CLR,0.00,VWS V14.01,2013-02-03 11:27:00,
2013-02-03 05:32:00,6.0,-0.5,30.04,NW,318,0.0,12.0,74,0.00,,CLR,0.00,VWS V14.01,2013-02-03 11:32:00,
2013-02-03 05:37:00,5.8,-0.7,30.04,WNW,296,5.0,13.0,74,0.00,,CLR,0.00,VWS V14.01,2013-02-03 11:37:00,
2013-02-03 05:42:00,5.6,-0.9,30.04,WNW,296,10.0,10.0,74,0.00,,CLR,0.00,VWS V14.01,2013-02-03 11:42:00,
2013-02-03 05:47:00,5.4,-1.4,30.04,WNW,294,4.0,11.0,73,0.00,,CLR,0.00,VWS V14.01,2013-02-03 11:47:00,
2013-02-03 05:52:00,5.2,-1.5,30.04,WNW,284,4.0,11.0,73,0.00,,CLR,0.00,VWS V14.01,2013-02-03 11:52:00,
2013-02-03 05:57:00,5.0,-1.8,30.04,WNW,291,3.0,7.0,73,0.00,,CLR,0.00,VWS V14.01,2013-02-03 11:57:00,
2013-02-03 06:02:00,4.8,-1.6,30.05,WNW,286,3.0,11.0,74,0.00,,FEW050,0.00,VWS V14.01,2013-02-03 12:02:00,
2013-02-03 06:07:00,4.7,-2.0,30.05,WNW,282,6.0,10.0,73,0.00,,FEW050,0.00,VWS V14.01,2013-02-03 12:07:00,
2013-02-03 06:12:00,4.5,-1.9,30.05,WNW,283,0.0,10.0,74,0.00,,FEW050,0.00,VWS V14.01,2013-02-03 12:12:00,
2013-02-03 06:17:00,4.3,-2.4,30.05,West,273,5.0,6.0,73,0.00,,FEW050,0.00,VWS V14.01,2013-02-03 12:17:00,
2013-02-03 06:22:00,4.1,-2.6,30.05,West,273,0.0,7.0,73,0.00,,FEW050,0.00,VWS V14.01,2013-02-03 12:22:00,
2013-02-03 06:27:00,3.7,-3.0,30.05,WNW,290,5.0,7.0,73,0.00,,FEW050,0.00,VWS V14.01,2013-02-03 12:27:00,
2013-02-03 06:32:00,3.5,-3.2,30.05,WNW,285,0.0,9.0,73,0.00,,FEW050,0.00,VWS V14.01,2013-02-03 12:32:00,
2013-02-03 06:37:00,3.5,-2.9,30.05,WNW,298,8.0,9.0,74,0.00,,FEW050,0.00,VWS V14.01,2013-02-03 12:37:00,
2013-02-03 06:42:00,3.4,-3.0,30.05,WNW,285,3.0,10.0,74,0.00,,FEW050,0.00,VWS V14.01,2013-02-03 12:42:00,
2013-02-03 06:47:00,3.2,-3.2,30.06,WNW,288,0.0,8.0,74,0.00,,FEW050,0.00,VWS V14.01,2013-02-03 12:47:00,
2013-02-03 06:52:00,3.0,-3.4,30.06,WNW,298,0.0,6.0,74,0.00,,FEW050,0.00,VWS V14.01,2013-02-03 12:52:00,
2013-02-03 07:02:00,2.8,-3.6,30.06,West,275,0.0,5.0,74,0.00,,CLR,0.00,VWS V14.01,2013-02-03 13:02:00,
2013-02-03 07:07:00,2.6,-3.8,30.06,WNW,290,5.0,7.0,74,0.00,,CLR,0.00,VWS V14.01,2013-02-03 13:07:00,
2013-02-03 07:12:00,2.4,-4.0,30.06,NW,305,5.0,7.0,74,0.00,,CLR,0.00,VWS V14.01,2013-02-03 13:12:00,
2013-02-03 07:17:00,2.4,-4.0,30.07,WNW,294,6.0,10.0,74,0.00,,CLR,0.00,VWS V14.01,2013-02-03 13:17:00,
2013-02-03 07:22:00,2.4,-4.0,30.07,NW,317,2.0,9.0,74,0.00,,CLR,0.00,VWS V14.01,2013-02-03 13:22:00,
2013-02-03 07:27:00,2.4,-4.0,30.07,WNW,303,3.0,11.0,74,0.00,,CLR,0.00,VWS V14.01,2013-02-03 13:27:00,
2013-02-03 07:32:00,2.4,-4.0,30.07,NW,309,5.0,7.0,74,0.00,,CLR,0.00,VWS V14.01,2013-02-03 13:32:00,
2013-02-03 07:37:00,2.4,-4.0,30.07,NW,310,5.0,8.0,74,0.00,,CLR,0.00,VWS V14.01,2013-02-03 13:37:00,
2013-02-03 07:47:00,2.4,-4.0,30.06,NW,309,0.0,0.0,74,0.00,,CLR,0.00,VWS V14.01,2013-02-03 13:47:00,
2013-02-03 07:52:00,2.4,-4.0,30.06,NW,311,6.0,7.0,74,0.00,,CLR,0.00,VWS V14.01,2013-02-03 13:52:00,
2013-02-03 07:57:00,2.8,-3.3,30.06,NW,313,4.0,10.0,75,0.00,,CLR,0.00,VWS V14.01,2013-02-03 13:57:00,
2013-02-03 08:02:00,3.2,-2.9,30.06,NW,321,9.0,10.0,75,0.00,,BKN095,0.00,VWS V14.01,2013-02-03 14:02:00,
2013-02-03 08:07:00,3.5,-2.6,30.06,NW,310,8.0,10.0,75,0.00,,BKN095,0.00,VWS V14.01,2013-02-03 14:07:00,
2013-02-03 08:12:00,3.7,-2.7,30.06,NW,323,5.0,9.0,74,0.00,,BKN095,0.00,VWS V14.01,2013-02-03 14:12:00,
2013-02-03 08:22:00,3.7,-3.0,30.08,WNW,290,0.0,10.0,73,0.00,,BKN095,0.00,VWS V14.01,2013-02-03 14:22:00,
2013-02-03 08:27:00,3.7,-3.0,30.08,NW,309,5.0,10.0,73,0.00,,BKN095,0.00,VWS V14.01,2013-02-03 14:27:00,
2013-02-03 08:32:00,3.7,-3.0,30.09,NW,321,2.0,10.0,73,0.00,,BKN095,0.00,VWS V14.01,2013-02-03 14:32:00,
2013-02-03 08:37:00,3.7,-3.0,30.09,North,355,4.0,7.0,73,0.00,,BKN095,0.00,VWS V14.01,2013-02-03 14:37:00,
2013-02-03 08:42:00,3.5,-3.5,30.09,NW,304,1.0,7.0,72,0.00,,BKN095,0.00,VWS V14.01,2013-02-03 14:42:00,
2013-02-03 08:47:00,3.7,-3.0,30.09,WNW,296,3.0,7.0,73,0.00,,BKN095,0.00,VWS V14.01,2013-02-03 14:47:00,
2013-02-03 08:52:00,3.7,-3.3,30.09,WNW,301,2.0,7.0,72,0.00,,BKN095,0.00,VWS V14.01,2013-02-03 14:52:00,
2013-02-03 08:57:00,4.1,-2.9,30.09,WNW,298,2.0,9.0,72,0.00,,BKN095,0.00,VWS V14.01,2013-02-03 14:57:00,
2013-02-03 09:07:00,4.3,-2.7,30.08,NW,311,2.0,10.0,72,0.00,,FEW100,0.00,VWS V14.01,2013-02-03 15:07:00,
2013-02-03 09:12:00,4.3,-3.0,30.08,NW,319,1.0,6.0,71,0.00,,FEW100,0.00,VWS V14.01,2013-02-03 15:12:00,
2013-02-03 09:17:00,4.5,-2.8,30.08,WNW,300,5.0,7.0,71,0.00,,FEW100,0.00,VWS V14.01,2013-02-03 15:17:00,
2013-02-03 09:22:00,4.7,-2.6,30.08,NW,317,4.0,8.0,71,0.00,,FEW100,0.00,VWS V14.01,2013-02-03 15:22:00,
2013-02-03 09:27:00,4.8,-2.5,30.08,NW,324,3.0,11.0,71,0.00,,FEW100,0.00,VWS V14.01,2013-02-03 15:27:00,
2013-02-03 09:32:00,5.0,-2.3,30.08,WNW,302,5.0,7.0,71,0.00,,FEW100,0.00,VWS V14.01,2013-02-03 15:32:00,
2013-02-03 09:37:00,5.0,-2.6,30.08,West,275,6.0,10.0,70,0.00,,FEW100,0.00,VWS V14.01,2013-02-03 15:37:00,
2013-02-03 09:42:00,5.2,-2.4,30.08,West,265,4.0,10.0,70,0.00,,FEW100,0.00,VWS V14.01,2013-02-03 15:42:00,
2013-02-03 09:47:00,5.4,-2.2,30.07,West,281,4.0,9.0,70,0.00,,FEW100,0.00,VWS V14.01,2013-02-03 15:47:00,
2013-02-03 09:52:00,5.6,-2.0,30.07,WNW,284,7.0,10.0,70,0.00,,FEW100,0.00,VWS V14.01,2013-02-03 15:52:00,
2013-02-03 09:57:00,5.8,-1.9,30.07,WNW,291,4.0,12.0,70,0.00,,FEW100,0.00,VWS V14.01,2013-02-03 15:57:00,
2013-02-03 10:02:00,6.0,-1.7,30.07,WNW,294,5.0,9.0,70,0.00,,CLR,0.00,VWS V14.01,2013-02-03 16:02:00,
2013-02-03 10:07:00,6.1,-1.9,30.07,West,277,5.0,10.0,69,0.00,,CLR,0.00,VWS V14.01,2013-02-03 16:07:00,
2013-02-03 10:17:00,6.7,-1.3,30.07,WNW,294,6.0,7.0,69,0.00,,CLR,0.00,VWS V14.01,2013-02-03 16:17:00,
2013-02-03 10:22:00,7.0,-1.3,30.07,WNW,293,7.0,12.0,68,0.00,,CLR,0.00,VWS V14.01,2013-02-03 16:22:00,
2013-02-03 10:27:00,7.2,-1.1,30.07,West,271,4.0,10.0,68,0.00,,CLR,0.00,VWS V14.01,2013-02-03 16:27:00,
2013-02-03 10:32:00,7.6,-1.0,30.08,NW,315,2.0,11.0,67,0.00,,CLR,0.00,VWS V14.01,2013-02-03 16:32:00,
2013-02-03 10:37:00,7.7,-1.0,30.08,NW,309,7.0,12.0,67,0.00,,CLR,0.00,VWS V14.01,2013-02-03 16:37:00,
2013-02-03 10:42:00,7.9,-0.8,30.08,WNW,294,9.0,10.0,67,0.00,,CLR,0.00,VWS V14.01,2013-02-03 16:42:00,
2013-02-03 10:47:00,8.3,-0.7,30.08,West,266,6.0,11.0,66,0.00,,CLR,0.00,VWS V14.01,2013-02-03 16:47:00,
2013-02-03 10:52:00,8.4,-0.9,30.08,NW,309,1.0,12.0,65,0.00,,CLR,0.00,VWS V14.01,2013-02-03 16:52:00,
2013-02-03 10:57:00,8.8,-0.6,30.08,NW,307,5.0,11.0,65,0.00,,CLR,0.00,VWS V14.01,2013-02-03 16:57:00,
2013-02-03 11:02:00,9.2,-0.5,30.08,WNW,290,9.0,11.0,64,0.00,,BKN080,0.00,VWS V14.01,2013-02-03 17:02:00,
2013-02-03 11:07:00,9.5,-0.2,30.08,NW,307,7.0,11.0,64,0.00,,BKN080,0.00,VWS V14.01,2013-02-03 17:07:00,
2013-02-03 11:12:00,9.7,-0.3,30.08,West,276,3.0,10.0,63,0.00,,BKN080,0.00,VWS V14.01,2013-02-03 17:12:00,
2013-02-03 11:17:00,10.2,0.5,30.08,NW,304,5.0,9.0,64,0.00,,BKN080,0.00,VWS V14.01,2013-02-03 17:17:00,
2013-02-03 11:22:00,10.4,0.0,30.08,West,264,7.0,10.0,62,0.00,,BKN080,0.00,VWS V14.01,2013-02-03 17:22:00,
2013-02-03 11:27:00,10.9,0.1,30.08,West,261,5.0,11.0,61,0.00,,BKN080,0.00,VWS V14.01,2013-02-03 17:27:00,
2013-02-03 11:32:00,11.1,0.6,30.07,West,273,2.0,6.0,62,0.00,,BKN080,0.00,VWS V14.01,2013-02-03 17:32:00,
2013-02-03 11:37:00,11.2,0.7,30.07,WNW,288,0.0,9.0,62,0.00,,BKN080,0.00,VWS V14.01,2013-02-03 17:37:00,
2013-02-03 11:47:00,11.7,0.9,30.07,West,274,5.0,7.0,61,0.00,,BKN080,0.00,VWS V14.01,2013-02-03 17:47:00,
2013-02-03 11:52:00,12.1,0.9,30.07,WNW,292,7.0,10.0,60,0.00,,BKN080,0.00,VWS V14.01,2013-02-03 17:52:00,
2013-02-03 11:57:00,11.7,0.5,30.07,WNW,286,0.0,10.0,60,0.00,,BKN080,0.00,VWS V14.01,2013-02-03 17:57:00,
2013-02-03 12:07:00,11.6,0.4,30.06,NW,323,1.0,10.0,60,0.00,,OVC075,0.00,VWS V14.01,2013-02-03 18:07:00,
2013-02-03 12:17:00,11.6,0.8,30.05,West,277,0.0,6.0,61,0.00,,OVC075,0.00,VWS V14.01,2013-02-03 18:17:00,
2013-02-03 12:22:00,11.9,1.0,30.05,West,276,2.0,10.0,61,0.00,,OVC075,0.00,VWS V14.01,2013-02-03 18:22:00,
2013-02-03 12:27:00,12.1,0.9,30.05,NW,315,0.0,7.0,60,0.00,,OVC075,0.00,VWS V14.01,2013-02-03 18:27:00,
2013-02-03 12:32:00,12.3,1.1,30.05,West,275,5.0,8.0,60,0.00,,OVC075,0.00,VWS V14.01,2013-02-03 18:32:00,
2013-02-03 12:37:00,12.4,1.2,30.05,West,273,0.0,8.0,60,0.00,,OVC075,0.00,VWS V14.01,2013-02-03 18:37:00,
2013-02-03 12:42:00,12.6,1.7,30.05,WNW,288,0.0,11.0,61,0.00,,OVC075,0.00,VWS V14.01,2013-02-03 18:42:00,
2013-02-03 12:47:00,12.8,1.5,30.04,WNW,288,0.0,3.0,60,0.00,,OVC075,0.00,VWS V14.01,2013-02-03 18:47:00,
2013-02-03 12:52:00,12.6,1.0,30.04,West,277,2.0,7.0,59,0.00,,OVC075,0.00,VWS V14.01,2013-02-03 18:52:00,
2013-02-03 13:02:00,13.1,1.5,30.03,West,279,0.0,4.0,59,0.00,,OVC075,0.00,VWS V14.01,2013-02-03 19:02:00,
2013-02-03 13:07:00,13.3,2.0,30.03,West,275,1.0,6.0,60,0.00,,OVC075,0.00,VWS V14.01,2013-02-03 19:07:00,
2013-02-03 13:12:00,13.3,1.7,30.03,West,275,0.0,9.0,59,0.00,,OVC075,0.00,VWS V14.01,2013-02-03 19:12:00,
2013-02-03 13:17:00,13.5,1.9,30.03,WNW,286,0.0,5.0,59,0.00,,OVC075,0.00,VWS V14.01,2013-02-03 19:17:00,
2013-02-03 13:22:00,13.5,1.9,30.03,West,281,1.0,7.0,59,0.00,,OVC075,0.00,VWS V14.01,2013-02-03 19:22:00,
2013-02-03 13:27:00,13.5,1.9,30.03,West,281,5.0,9.0,59,0.00,,OVC075,0.00,VWS V14.01,2013-02-03 19:27:00,
2013-02-03 13:32:00,13.1,1.5,30.03,West,279,4.0,10.0,59,0.00,,OVC075,0.00,VWS V14.01,2013-02-03 19:32:00,
2013-02-03 13:37:00,13.1,1.8,30.03,West,262,2.0,7.0,60,0.00,,OVC075,0.00,VWS V14.01,2013-02-03 19:37:00,
2013-02-03 13:47:00,13.3,2.0,30.02,West,259,6.0,11.0,60,0.00,,OVC075,0.00,VWS V14.01,2013-02-03 19:47:00,
2013-02-03 13:52:00,13.5,2.2,30.02,West,278,5.0,7.0,60,0.00,,OVC075,0.00,VWS V14.01,2013-02-03 19:52:00,
2013-02-03 14:02:00,13.5,2.2,30.01,WNW,294,2.0,7.0,60,0.00,,OVC070,0.00,VWS V14.01,2013-02-03 20:02:00,
2013-02-03 14:07:00,13.5,2.2,30.01,West,261,0.0,7.0,60,0.00,,OVC070,0.00,VWS V14.01,2013-02-03 20:07:00,
2013-02-03 14:12:00,13.6,2.7,30.01,West,279,0.0,4.0,61,0.00,,OVC070,0.00,VWS V14.01,2013-02-03 20:12:00,
2013-02-03 14:17:00,13.6,3.0,30.01,West,271,0.0,7.0,62,0.00,,,0.00,VWS V14.01,2013-02-03 20:17:00,
2013-02-03 14:27:00,14.6,4.0,30.01,WSW,246,1.0,1.0,62,0.00,,,0.00,VWS V14.01,2013-02-03 20:27:00,
2013-02-03 14:32:00,14.6,3.6,30.01,West,259,0.0,3.0,61,0.00,,,0.00,VWS V14.01,2013-02-03 20:32:00,
2013-02-03 14:37:00,14.3,3.3,30.01,West,269,0.0,0.0,61,0.00,,,0.00,VWS V14.01,2013-02-03 20:37:00,
2013-02-03 14:42:00,14.3,3.7,30.01,West,273,0.0,3.0,62,0.00,,,0.00,VWS V14.01,2013-02-03 20:42:00,
2013-02-03 14:47:00,14.4,3.8,30.00,West,273,0.0,0.0,62,0.00,,,0.00,VWS V14.01,2013-02-03 20:47:00,
2013-02-03 14:57:00,14.1,3.1,30.00,West,280,0.0,0.0,61,0.00,,,0.00,VWS V14.01,2013-02-03 20:57:00,
2013-02-03 15:02:00,14.1,3.5,30.00,West,276,0.0,0.0,62,0.00,,,0.00,VWS V14.01,2013-02-03 21:02:00,
2013-02-03 15:07:00,14.0,3.4,30.00,West,276,0.0,0.0,62,0.00,,,0.00,VWS V14.01,2013-02-03 21:07:00,
2013-02-03 15:17:00,13.8,3.2,30.00,West,275,0.0,1.0,62,0.00,,,0.00,VWS V14.01,2013-02-03 21:17:00,
2013-02-03 15:22:00,13.6,3.0,30.00,West,275,0.0,0.0,62,0.00,,,0.00,VWS V14.01,2013-02-03 21:22:00,
2013-02-03 15:27:00,13.5,3.3,30.00,West,275,0.0,0.0,63,0.00,,,0.00,VWS V14.01,2013-02-03 21:27:00,
2013-02-03 15:32:00,13.3,3.1,30.00,West,275,0.0,0.0,63,0.00,,,0.00,VWS V14.01,2013-02-03 21:32:00,
2013-02-03 15:37:00,13.3,3.1,30.00,West,275,0.0,0.0,63,0.00,,,0.00,VWS V14.01,2013-02-03 21:37:00,
2013-02-03 15:42:00,13.3,3.1,30.00,West,275,0.0,0.0,63,0.00,,,0.00,VWS V14.01,2013-02-03 21:42:00,
2013-02-03 15:47:00,13.1,3.2,30.00,West,275,0.0,0.0,64,0.00,,,0.00,VWS V14.01,2013-02-03 21:47:00,
2013-02-03 15:57:00,13.1,3.2,30.00,WNW,283,0.0,0.0,64,0.00,,,0.00,VWS V14.01,2013-02-03 21:57:00,
2013-02-03 16:02:00,12.9,3.0,30.00,WNW,292,0.0,2.0,64,0.00,,OVC050,0.00,VWS V14.01,2013-02-03 22:02:00,
2013-02-03 16:12:00,12.8,2.9,30.00,WNW,292,0.0,0.0,64,0.00,,OVC050,0.00,VWS V14.01,2013-02-03 22:12:00,
2013-02-03 16:17:00,12.8,3.3,29.99,WNW,292,0.0,0.0,65,0.00,,OVC050,0.00,VWS V14.01,2013-02-03 22:17:00,
2013-02-03 16:27:00,12.9,3.4,29.99,WNW,292,0.0,0.0,65,0.00,,OVC050,0.00,VWS V14.01,2013-02-03 22:27:00,
2013-02-03 16:32:00,12.9,3.4,29.99,WNW,292,0.0,0.0,65,0.00,,OVC050,0.00,VWS V14.01,2013-02-03 22:32:00,
2013-02-03 16:37:00,12.9,3.4,29.99,WNW,292,0.0,0.0,65,0.00,,OVC050,0.00,VWS V14.01,2013-02-03 22:37:00,
2013-02-03 16:42:00,12.9,3.4,29.99,WNW,292,0.0,0.0,65,0.00,,OVC050,0.00,VWS V14.01,2013-02-03 22:42:00,
2013-02-03 16:52:00,12.8,3.3,29.99,WNW,292,0.0,0.0,65,0.00,,OVC044,0.00,VWS V14.01,2013-02-03 22:52:00,
2013-02-03 16:57:00,12.6,3.1,29.99,WNW,292,0.0,0.0,65,0.00,,OVC044,0.00,VWS V14.01,2013-02-03 22:57:00,
2013-02-03 17:07:00,12.6,3.4,29.97,WNW,292,0.0,0.0,66,0.00,,OVC042,0.00,VWS V14.01,2013-02-03 23:07:00,
2013-02-03 17:12:00,12.6,3.4,29.97,WNW,292,0.0,0.0,66,0.00,,OVC042,0.00,VWS V14.01,2013-02-03 23:12:00,
2013-02-03 17:22:00,12.4,3.2,29.99,WNW,292,0.0,0.0,66,0.00,,OVC042,0.00,VWS V14.01,2013-02-03 23:22:00,
2013-02-03 17:32:00,12.4,3.2,29.99,WNW,292,0.0,0.0,66,0.00,,,0.00,VWS V14.01,2013-02-03 23:32:00,
2013-02-03 17:37:00,12.4,3.5,29.99,WNW,292,0.0,0.0,67,0.00,,,0.00,VWS V14.01,2013-02-03 23:37:00,
2013-02-03 17:42:00,12.4,3.5,29.99,WNW,292,0.0,0.0,67,0.00,,,0.00,VWS V14.01,2013-02-03 23:42:00,
2013-02-03 17:52:00,12.4,3.5,29.99,WNW,292,0.0,0.0,67,0.00,,,0.00,VWS V14.01,2013-02-03 23:52:00,
2013-02-03 17:57:00,12.4,3.9,29.99,WNW,292,0.0,0.0,68,0.00,,,0.00,VWS V14.01,2013-02-03 23:57:00,
2013-02-03 18:02:00,12.4,3.9,29.99,WNW,292,0.0,0.0,68,0.00,,OVC040,0.00,VWS V14.01,2013-02-04 00:02:00,
2013-02-03 18:12:00,12.3,3.8,29.99,WNW,292,0.0,0.0,68,0.00,,OVC040,0.00,VWS V14.01,2013-02-04 00:12:00,
2013-02-03 18:17:00,12.3,3.8,30.00,WNW,292,0.0,0.0,68,0.00,,OVC040,0.00,VWS V14.01,2013-02-04 00:17:00,
2013-02-03 18:22:00,12.3,3.8,30.00,WNW,292,0.0,0.0,68,0.00,,OVC040,0.00,VWS V14.01,2013-02-04 00:22:00,
2013-02-03 18:27:00,12.3,3.8,30.00,WNW,292,0.0,0.0,68,0.00,,OVC040,0.00,VWS V14.01,2013-02-04 00:27:00,
2013-02-03 18:32:00,12.3,3.8,30.00,WNW,292,0.0,0.0,68,0.00,,OVC040,0.00,VWS V14.01,2013-02-04 00:32:00,
2013-02-03 18:37:00,12.3,3.8,30.00,WNW,292,0.0,0.0,68,0.00,,OVC040,0.00,VWS V14.01,2013-02-04 00:37:00,
2013-02-03 18:42:00,12.3,4.1,30.00,WNW,292,0.0,0.0,69,0.00,,OVC040,0.00,VWS V14.01,2013-02-04 00:42:00,
2013-02-03 18:47:00,12.1,3.9,29.99,WNW,292,0.0,0.0,69,0.00,,OVC040,0.00,VWS V14.01,2013-02-04 00:47:00,
2013-02-03 18:57:00,12.1,4.2,29.99,WNW,292,0.0,0.0,70,0.00,,OVC040,0.00,VWS V14.01,2013-02-04 00:57:00,
2013-02-03 19:07:00,11.9,4.0,29.99,WNW,292,0.0,0.0,70,0.00,,,0.00,VWS V14.01,2013-02-04 01:07:00,
2013-02-03 19:17:00,11.9,4.0,29.99,WNW,292,0.0,0.0,70,0.00,,,0.00,VWS V14.01,2013-02-04 01:17:00,
2013-02-03 19:22:00,11.9,4.0,29.99,WNW,292,0.0,0.0,70,0.00,,,0.00,VWS V14.01,2013-02-04 01:22:00,
2013-02-03 19:27:00,11.9,4.0,29.99,WNW,292,0.0,0.0,70,0.00,,,0.00,VWS V14.01,2013-02-04 01:27:00,
2013-02-03 19:32:00,11.7,3.8,29.99,WNW,292,0.0,0.0,70,0.00,,,0.00,VWS V14.01,2013-02-04 01:32:00,
2013-02-03 19:37:00,11.9,4.3,29.99,WNW,292,0.0,0.0,71,0.00,,,0.00,VWS V14.01,2013-02-04 01:37:00,
2013-02-03 19:47:00,11.9,4.3,29.99,WNW,292,0.0,0.0,71,0.00,,,0.00,VWS V14.01,2013-02-04 01:47:00,
2013-02-03 19:57:00,11.9,4.3,29.99,WNW,292,0.0,0.0,71,0.00,,,0.00,VWS V14.01,2013-02-04 01:57:00,
2013-02-03 20:02:00,11.9,4.3,29.99,WNW,292,0.0,0.0,71,0.00,,,0.00,VWS V14.01,2013-02-04 02:02:00,
2013-02-03 20:07:00,11.9,4.3,29.99,WNW,292,0.0,0.0,71,0.00,,,0.00,VWS V14.01,2013-02-04 02:07:00,
2013-02-03 20:12:00,11.9,4.3,29.99,WNW,292,0.0,0.0,71,0.00,,,0.00,VWS V14.01,2013-02-04 02:12:00,
2013-02-03 20:22:00,11.9,4.3,29.98,NW,317,0.0,0.0,71,0.00,,,0.00,VWS V14.01,2013-02-04 02:22:00,
2013-02-03 20:27:00,11.9,4.3,29.98,NW,321,0.0,0.0,71,0.00,,,0.00,VWS V14.01,2013-02-04 02:27:00,
2013-02-03 20:37:00,11.9,4.3,29.99,NW,321,0.0,0.0,71,0.00,,,0.00,VWS V14.01,2013-02-04 02:37:00,
2013-02-03 20:47:00,11.9,4.3,29.98,NW,321,0.0,0.0,71,0.00,,,0.00,VWS V14.01,2013-02-04 02:47:00,
2013-02-03 20:57:00,11.9,4.6,29.98,NW,321,0.0,0.0,72,0.00,,,0.00,VWS V14.01,2013-02-04 02:57:00,
2013-02-03 21:02:00,11.9,4.6,29.99,NW,321,0.0,0.0,72,0.00,,,0.00,VWS V14.01,2013-02-04 03:02:00,
2013-02-03 21:07:00,11.9,4.9,29.99,North,360,0.0,1.0,73,0.00,,,0.00,VWS V14.01,2013-02-04 03:07:00,
2013-02-03 21:17:00,11.9,4.9,29.98,NE,55,0.0,1.0,73,0.00,,,0.00,VWS V14.01,2013-02-04 03:17:00,
2013-02-03 21:27:00,11.9,4.9,29.98,NE,56,0.0,1.0,73,0.00,,,0.00,VWS V14.01,2013-02-04 03:27:00,
2013-02-03 21:32:00,11.7,5.0,29.98,ENE,58,0.0,2.0,74,0.00,,,0.00,VWS V14.01,2013-02-04 03:32:00,
2013-02-03 21:37:00,11.7,5.0,29.98,ENE,59,1.0,2.0,74,0.00,,,0.00,VWS V14.01,2013-02-04 03:37:00,
2013-02-03 21:42:00,11.7,5.0,29.98,ENE,71,0.0,2.0,74,0.00,,,0.00,VWS V14.01,2013-02-04 03:42:00,
2013-02-03 21:47:00,11.7,5.0,29.98,ENE,70,0.0,0.0,74,0.00,,,0.00,VWS V14.01,2013-02-04 03:47:00,
2013-02-03 21:52:00,11.6,5.2,29.98,ENE,70,0.0,1.0,75,0.00,,,0.00,VWS V14.01,2013-02-04 03:52:00,
2013-02-03 21:57:00,11.6,5.2,29.98,ENE,70,0.0,2.0,75,0.00,,,0.00,VWS V14.01,2013-02-04 03:57:00,
2013-02-03 22:02:00,11.4,5.3,29.98,ENE,71,0.0,2.0,76,0.00,,,0.00,VWS V14.01,2013-02-04 04:02:00,
2013-02-03 22:07:00,11.2,5.1,29.98,ENE,65,1.0,3.0,76,0.00,,,0.00,VWS V14.01,2013-02-04 04:07:00,
2013-02-03 22:17:00,11.1,5.0,29.98,ENE,69,0.0,3.0,76,0.00,,,0.00,VWS V14.01,2013-02-04 04:17:00,
2013-02-03 22:27:00,10.9,5.1,29.98,ENE,63,0.0,2.0,77,0.00,,,0.00,VWS V14.01,2013-02-04 04:27:00,
2013-02-03 22:32:00,10.7,4.9,29.97,ENE,63,0.0,2.0,77,0.00,,,0.00,VWS V14.01,2013-02-04 04:32:00,
2013-02-03 22:37:00,10.7,4.9,29.97,ENE,63,0.0,2.0,77,0.00,,,0.00,VWS V14.01,2013-02-04 04:37:00,
2013-02-03 22:42:00,10.7,5.2,29.97,ENE,63,0.0,1.0,78,0.00,,,0.00,VWS V14.01,2013-02-04 04:42:00,
2013-02-03 22:47:00,10.7,5.2,29.97,ENE,63,0.0,2.0,78,0.00,,,0.00,VWS V14.01,2013-02-04 04:47:00,
2013-02-03 22:52:00,10.7,5.2,29.97,ENE,63,0.0,1.0,78,0.00,,,0.00,VWS V14.01,2013-02-04 04:52:00,
2013-02-03 22:57:00,10.7,5.2,29.97,ENE,58,0.0,2.0,78,0.00,,,0.00,VWS V14.01,2013-02-04 04:57:00,
2013-02-03 23:02:00,10.5,5.0,29.98,ENE,62,0.0,2.0,78,0.00,,,0.00,VWS V14.01,2013-02-04 05:02:00,
2013-02-03 23:07:00,10.5,5.0,29.98,ENE,62,1.0,1.0,78,0.00,,,0.00,VWS V14.01,2013-02-04 05:07:00,
2013-02-03 23:12:00,10.4,4.9,29.98,ENE,62,0.0,2.0,78,0.00,,,0.00,VWS V14.01,2013-02-04 05:12:00,
2013-02-03 23:22:00,10.4,4.9,29.98,ENE,62,0.0,2.0,78,0.00,,,0.00,VWS V14.01,2013-02-04 05:22:00,
2013-02-03 23:27:00,10.2,4.7,29.98,ENE,62,0.0,1.0,78,0.00,,,0.00,VWS V14.01,2013-02-04 05:27:00,
2013-02-03 23:32:00,10.2,4.7,29.98,ENE,62,0.0,0.0,78,0.00,,,0.00,VWS V14.01,2013-02-04 05:32:00,
2013-02-03 23:37:00,10.2,5.0,29.98,ENE,62,0.0,0.0,79,0.00,,,0.00,VWS V14.01,2013-02-04 05:37:00,
2013-02-03 23:47:00,10.0,4.8,29.97,ENE,61,0.0,1.0,79,0.00,,,0.00,VWS V14.01,2013-02-04 05:47:00,
2013-02-03 23:52:00,10.0,4.8,29.97,ENE,61,0.0,0.0,79,0.00,,,0.00,VWS V14.01,2013-02-04 05:52:00,
2013-02-03 23:57:00,10.0,4.8,29.97,ENE,67,0.0,2.0,79,0.00,,,0.00,VWS V14.01,2013-02-04 05:57:00,